Time,TemperatureF,DewpointF,PressureIn,WindDirection,WindDirectionDegrees,WindSpeedMPH,WindSpeedGustMPH,Humidity,HourlyPrecipIn,Conditions,Clouds,dailyrainin,SoftwareType,DateUTC
2013-03-01 00:14:00,43.0,24.0,30.25,ESE,121,0.0,0.0,47,0.00,,,0.00,weatherlink.com 1.10,2013-03-01 06:14:00,
2013-03-01 00:29:00,41.9,24.0,30.25,ESE,121,0.0,0.0,49,0.00,,,0.00,weatherlink.com 1.10,2013-03-01 06:29:00,
2013-03-01 00:44:00,40.6,24.0,30.26,ESE,121,0.0,0.0,52,0.00,,,0.00,weatherlink.com 1.10,2013-03-01 06:44:00,
2013-03-01 00:59:00,39.3,24.0,30.26,ESE,121,0.0,0.0,54,0.00,,,0.00,weatherlink.com 1.10,2013-03-01 06:59:00,
2013-03-01 01:14:00,40.0,24.0,30.26,ESE,121,0.0,0.0,53,0.00,,,0.00,weatherlink.com 1.10,2013-03-01 07:14:00,
2013-03-01 01:29:00,39.7,24.0,30.26,ESE,121,0.0,0.0,53,0.00,,,0.00,weatherlink.com 1.10,2013-03-01 07:29:00,
2013-03-01 01:44:00,41.8,25.0,30.26,WSW,245,0.0,2.0,51,0.00,,,0.00,weatherlink.com 1.10,2013-03-01 07:44:00,
2013-03-01 01:59:00,41.9,24.0,30.26,SW,235,0.0,2.0,50,0.00,,,0.00,weatherlink.com 1.10,2013-03-01 07:59:00,
2013-03-01 02:14:00,43.1,26.0,30.26,West,263,0.0,1.0,51,0.00,,,0.00,weatherlink.com 1.10,2013-03-01 08:14:00,
2013-03-01 02:29:00,44.1,32.0,30.25,WSW,253,2.0,2.0,62,0.00,,,0.00,weatherlink.com 1.10,2013-03-01 08:29:00,
2013-03-01 02:44:00,43.9,31.0,30.25,SW,231,1.0,2.0,60,0.00,,,0.00,weatherlink.com 1.10,2013-03-01 08:44:00,
2013-03-01 02:59:00,43.7,34.0,30.25,WSW,253,0.0,2.0,68,0.00,,,0.00,weatherlink.com 1.10,2013-03-01 08:59:00,
2013-03-01 03:14:00,40.8,30.0,30.25,WSW,253,0.0,1.0,66,0.00,,,0.00,weatherlink.com 1.10,2013-03-01 09:14:00,
2013-03-01 03:29:00,38.5,31.0,30.25,WSW,253,0.0,0.0,75,0.00,,,0.00,weatherlink.com 1.10,2013-03-01 09:29:00,
2013-03-01 03:44:00,39.9,30.0,30.25,WSW,253,0.0,1.0,68,0.00,,,0.00,weatherlink.com 1.10,2013-03-01 09:44:00,
2013-03-01 03:59:00,39.4,30.0,30.25,WSW,253,0.0,0.0,69,0.00,,,0.00,weatherlink.com 1.10,2013-03-01 09:59:00,
2013-03-01 04:14:00,41.5,29.0,30.25,WSW,253,0.0,1.0,62,0.00,,,0.00,weatherlink.com 1.10,2013-03-01 10:14:00,
2013-03-01 04:29:00,39.4,28.0,30.25,WSW,253,0.0,0.0,63,0.00,,,0.00,weatherlink.com 1.10,2013-03-01 10:29:00,
2013-03-01 04:44:00,37.0,28.0,30.26,WSW,253,0.0,1.0,71,0.00,,,0.00,weatherlink.com 1.10,2013-03-01 10:44:00,
2013-03-01 04:59:00,35.2,28.0,30.26,WSW,253,0.0,0.0,74,0.00,,,0.00,weatherlink.com 1.10,2013-03-01 10:59:00,
2013-03-01 05:14:00,33.8,27.0,30.27,WSW,253,0.0,0.0,75,0.00,,,0.00,weatherlink.com 1.10,2013-03-01 11:14:00,
2013-03-01 05:30:00,33.1,27.0,30.27,WSW,253,0.0,0.0,77,0.00,,,0.00,weatherlink.com 1.10,2013-03-01 11:30:00,
2013-03-01 05:45:00,33.9,27.0,30.27,WSW,254,0.0,0.0,77,0.00,,,0.00,weatherlink.com 1.10,2013-03-01 11:45:00,
2013-03-01 06:00:00,34.8,27.0,30.27,WSW,253,0.0,0.0,74,0.00,,,0.00,weatherlink.com 1.10,2013-03-01 12:00:00,
2013-03-01 06:15:00,35.1,28.0,30.27,WSW,253,0.0,0.0,74,0.00,,,0.00,weatherlink.com 1.10,2013-03-01 12:15:00,
2013-03-01 06:30:00,35.6,28.0,30.27,South,173,0.0,0.0,74,0.00,,,0.00,weatherlink.com 1.10,2013-03-01 12:30:00,
2013-03-01 06:45:00,34.5,27.0,30.27,South,173,0.0,0.0,73,0.00,,,0.00,weatherlink.com 1.10,2013-03-01 12:45:00,
2013-03-01 07:00:00,34.7,27.0,30.27,South,174,0.0,0.0,74,0.00,,,0.00,weatherlink.com 1.10,2013-03-01 13:00:00,
2013-03-01 07:15:00,34.8,27.0,30.27,SE,132,0.0,1.0,72,0.00,,,0.00,weatherlink.com 1.10,2013-03-01 13:15:00,
2013-03-01 07:30:00,36.5,28.0,30.27,SE,133,0.0,0.0,71,0.00,,,0.00,weatherlink.com 1.10,2013-03-01 13:30:00,
2013-03-01 07:45:00,39.5,29.0,30.28,SE,133,1.0,1.0,65,0.00,,,0.00,weatherlink.com 1.10,2013-03-01 13:45:00,
2013-03-01 08:00:00,40.2,29.0,30.29,ENE,66,4.0,4.0,64,0.00,,,0.00,weatherlink.com 1.10,2013-03-01 14:00:00,
2013-03-01 08:15:00,41.2,29.0,30.29,East,79,3.0,3.0,63,0.00,,,0.00,weatherlink.com 1.10,2013-03-01 14:15:00,
2013-03-01 08:30:00,44.1,30.0,30.30,East,82,0.0,2.0,58,0.00,,,0.00,weatherlink.com 1.10,2013-03-01 14:30:00,
2013-03-01 08:45:00,48.1,30.0,30.30,East,84,0.0,2.0,50,0.00,,,0.00,weatherlink.com 1.10,2013-03-01 14:45:00,
2013-03-01 09:00:00,49.8,31.0,30.31,ENE,64,2.0,3.0,48,0.00,,,0.00,weatherlink.com 1.10,2013-03-01 15:00:00,
2013-03-01 09:15:00,51.7,30.0,30.31,NE,53,5.0,5.0,43,0.00,,,0.00,weatherlink.com 1.10,2013-03-01 15:15:00,
2013-03-01 09:30:00,53.4,29.0,30.31,NNE,12,2.0,5.0,40,0.00,,,0.00,weatherlink.com 1.10,2013-03-01 15:30:00,
2013-03-01 09:45:00,54.7,29.0,30.30,ENE,57,6.0,6.0,38,0.00,,,0.00,weatherlink.com 1.10,2013-03-01 15:45:00,
2013-03-01 10:00:00,56.1,29.0,30.30,ENE,60,1.0,5.0,35,0.00,,,0.00,weatherlink.com 1.10,2013-03-01 16:00:00,
2013-03-01 10:15:00,57.9,31.0,30.29,SE,132,1.0,3.0,36,0.00,,,0.00,weatherlink.com 1.10,2013-03-01 16:15:00,
2013-03-01 10:30:00,60.4,29.0,30.29,WSW,248,0.0,3.0,30,0.00,,,0.00,weatherlink.com 1.10,2013-03-01 16:30:00,
2013-03-01 10:45:00,60.6,28.0,30.28,North,358,0.0,5.0,29,0.00,,,0.00,weatherlink.com 1.10,2013-03-01 16:45:00,
2013-03-01 11:00:00,62.2,28.0,30.27,West,274,3.0,7.0,27,0.00,,,0.00,weatherlink.com 1.10,2013-03-01 17:00:00,
2013-03-01 11:15:00,63.2,29.0,30.27,WSW,243,4.0,9.0,27,0.00,,,0.00,weatherlink.com 1.10,2013-03-01 17:15:00,
2013-03-01 11:30:00,62.7,27.0,30.27,WSW,253,9.0,12.0,26,0.00,,,0.00,weatherlink.com 1.10,2013-03-01 17:30:00,
2013-03-01 11:45:00,63.6,28.0,30.25,WSW,250,5.0,12.0,26,0.00,,,0.00,weatherlink.com 1.10,2013-03-01 17:45:00,
2013-03-01 12:00:00,64.3,28.0,30.25,SSW,201,3.0,9.0,25,0.00,,,0.00,weatherlink.com 1.10,2013-03-01 18:00:00,
2013-03-01 12:16:00,65.5,30.0,30.24,SE,128,3.0,10.0,26,0.00,,,0.00,weatherlink.com 1.10,2013-03-01 18:16:00,
2013-03-01 12:31:00,66.0,28.0,30.23,SW,229,9.0,12.0,24,0.00,,,0.00,weatherlink.com 1.10,2013-03-01 18:31:00,
2013-03-01 12:46:00,66.1,26.0,30.22,WSW,252,6.0,11.0,22,0.00,,,0.00,weatherlink.com 1.10,2013-03-01 18:46:00,
2013-03-01 13:01:00,66.6,25.0,30.21,SW,231,6.0,12.0,21,0.00,,,0.00,weatherlink.com 1.10,2013-03-01 19:01:00,
2013-03-01 13:16:00,67.8,26.0,30.20,SSW,207,6.0,14.0,21,0.00,,,0.00,weatherlink.com 1.10,2013-03-01 19:16:00,
2013-03-01 13:31:00,68.0,25.0,30.19,SW,232,4.0,12.0,20,0.00,,,0.00,weatherlink.com 1.10,2013-03-01 19:31:00,
2013-03-01 13:46:00,68.5,23.0,30.19,West,274,5.0,12.0,18,0.00,,,0.00,weatherlink.com 1.10,2013-03-01 19:46:00,
2013-03-01 14:01:00,68.7,22.0,30.18,WNW,294,5.0,13.0,17,0.00,,,0.00,weatherlink.com 1.10,2013-03-01 20:01:00,
2013-03-01 14:16:00,69.3,23.0,30.17,WSW,246,9.0,14.0,17,0.00,,,0.00,weatherlink.com 1.10,2013-03-01 20:16:00,
2013-03-01 14:31:00,69.9,23.0,30.17,WSW,253,6.0,14.0,17,0.00,,,0.00,weatherlink.com 1.10,2013-03-01 20:31:00,
2013-03-01 14:46:00,69.7,21.0,30.16,West,278,1.0,13.0,16,0.00,,,0.00,weatherlink.com 1.10,2013-03-01 20:46:00,
2013-03-01 15:01:00,70.9,22.0,30.15,West,273,6.0,14.0,16,0.00,,,0.00,weatherlink.com 1.10,2013-03-01 21:01:00,
2013-03-01 15:16:00,70.3,20.0,30.14,WSW,248,9.0,13.0,15,0.00,,,0.00,weatherlink.com 1.10,2013-03-01 21:16:00,
2013-03-01 15:31:00,71.2,21.0,30.14,WNW,298,6.0,13.0,15,0.00,,,0.00,weatherlink.com 1.10,2013-03-01 21:31:00,
2013-03-01 15:46:00,71.2,21.0,30.13,WSW,238,6.0,16.0,15,0.00,,,0.00,weatherlink.com 1.10,2013-03-01 21:46:00,
2013-03-01 16:01:00,71.0,21.0,30.12,West,270,9.0,12.0,15,0.00,,,0.00,weatherlink.com 1.10,2013-03-01 22:01:00,
2013-03-01 16:16:00,71.2,21.0,30.11,WNW,298,3.0,14.0,15,0.00,,,0.00,weatherlink.com 1.10,2013-03-01 22:16:00,
2013-03-01 16:31:00,71.0,21.0,30.11,WSW,239,2.0,11.0,15,0.00,,,0.00,weatherlink.com 1.10,2013-03-01 22:31:00,
2013-03-01 16:46:00,70.6,21.0,30.11,WSW,248,3.0,12.0,15,0.00,,,0.00,weatherlink.com 1.10,2013-03-01 22:46:00,
2013-03-01 17:01:00,70.5,21.0,30.10,West,263,1.0,10.0,15,0.00,,,0.00,weatherlink.com 1.10,2013-03-01 23:01:00,
2013-03-01 17:16:00,70.2,22.0,30.10,West,276,2.0,6.0,16,0.00,,,0.00,weatherlink.com 1.10,2013-03-01 23:16:00,
2013-03-01 17:31:00,69.9,23.0,30.11,NW,315,4.0,5.0,17,0.00,,,0.00,weatherlink.com 1.10,2013-03-01 23:31:00,
2013-03-01 17:46:00,69.6,23.0,30.11,NW,326,1.0,5.0,17,0.00,,,0.00,weatherlink.com 1.10,2013-03-01 23:46:00,
2013-03-01 18:01:00,68.8,25.0,30.12,NE,37,11.0,16.0,19,0.00,,,0.00,weatherlink.com 1.10,2013-03-02 00:01:00,
2013-03-01 18:16:00,67.0,25.0,30.13,NE,50,7.0,12.0,20,0.00,,,0.00,weatherlink.com 1.10,2013-03-02 00:16:00,
2013-03-01 18:31:00,65.1,25.0,30.14,NNE,25,4.0,5.0,22,0.00,,,0.00,weatherlink.com 1.10,2013-03-02 00:31:00,
2013-03-01 18:46:00,63.1,26.0,30.16,NNE,13,2.0,5.0,24,0.00,,,0.00,weatherlink.com 1.10,2013-03-02 00:46:00,
2013-03-01 19:01:00,61.7,25.0,30.17,NE,34,2.0,4.0,25,0.00,,,0.00,weatherlink.com 1.10,2013-03-02 01:01:00,
2013-03-01 19:16:00,60.1,26.0,30.17,NW,319,1.0,3.0,27,0.00,,,0.00,weatherlink.com 1.10,2013-03-02 01:16:00,
2013-03-01 19:31:00,60.9,21.0,30.17,NNE,23,6.0,9.0,21,0.00,,,0.00,weatherlink.com 1.10,2013-03-02 01:31:00,
2013-03-01 19:46:00,61.3,17.0,30.18,NW,308,3.0,6.0,18,0.00,,,0.00,weatherlink.com 1.10,2013-03-02 01:46:00,
2013-03-01 20:02:00,61.4,16.0,30.19,NNE,15,5.0,9.0,17,0.00,,,0.00,weatherlink.com 1.10,2013-03-02 02:02:00,
2013-03-01 20:17:00,60.9,17.0,30.20,NNE,28,10.0,13.0,18,0.00,,,0.00,weatherlink.com 1.10,2013-03-02 02:17:00,
2013-03-01 20:32:00,61.9,16.0,30.21,NNE,22,10.0,13.0,17,0.00,,,0.00,weatherlink.com 1.10,2013-03-02 02:32:00,
2013-03-01 20:47:00,61.4,16.0,30.21,North,6,5.0,10.0,17,0.00,,,0.00,weatherlink.com 1.10,2013-03-02 02:47:00,
2013-03-01 21:02:00,60.0,16.0,30.23,North,358,6.0,7.0,18,0.00,,,0.00,weatherlink.com 1.10,2013-03-02 03:02:00,
2013-03-01 21:17:00,59.1,17.0,30.23,NNW,343,3.0,7.0,19,0.00,,,0.00,weatherlink.com 1.10,2013-03-02 03:17:00,
2013-03-01 21:32:00,57.7,17.0,30.24,NNE,18,3.0,5.0,20,0.00,,,0.00,weatherlink.com 1.10,2013-03-02 03:32:00,
2013-03-01 21:47:00,56.2,17.0,30.24,NNW,333,1.0,2.0,21,0.00,,,0.00,weatherlink.com 1.10,2013-03-02 03:47:00,
2013-03-01 22:02:00,54.7,17.0,30.25,North,354,0.0,1.0,23,0.00,,,0.00,weatherlink.com 1.10,2013-03-02 04:02:00,
2013-03-01 22:17:00,52.7,18.0,30.26,NNE,29,2.0,5.0,25,0.00,,,0.00,weatherlink.com 1.10,2013-03-02 04:17:00,
2013-03-01 22:32:00,52.9,22.0,30.29,NE,39,6.0,11.0,30,0.00,,,0.00,weatherlink.com 1.10,2013-03-02 04:32:00,
2013-03-01 22:47:00,52.2,24.0,30.30,ENE,57,9.0,10.0,33,0.00,,,0.00,weatherlink.com 1.10,2013-03-02 04:47:00,
2013-03-01 23:02:00,51.1,25.0,30.29,NE,49,5.0,7.0,36,0.00,,,0.00,weatherlink.com 1.10,2013-03-02 05:02:00,
2013-03-01 23:17:00,50.1,25.0,30.29,ENE,76,2.0,4.0,38,0.00,,,0.00,weatherlink.com 1.10,2013-03-02 05:17:00,
2013-03-01 23:32:00,48.8,25.0,30.28,East,94,1.0,4.0,40,0.00,,,0.00,weatherlink.com 1.10,2013-03-02 05:32:00,
2013-03-01 23:47:00,48.1,26.0,30.28,ENE,61,3.0,4.0,43,0.00,,,0.00,weatherlink.com 1.10,2013-03-02 05:47:00,